Bradford County (N27)
Towanda, PA
Field Elevation: 730
Lat: 41°44.40N  Long: 76°26.83W
CTAF/Unicom Freq: 123.0000
   
     For Weather-by-Phone, call (570) 265-1024
Weather Advisories
2021-04-20   15:29 Z
Altimeter 29.93" Hg
Wind 240° @ 15 KT
Gusts 24 KT
Visibility 10 SM
Ceiling FEW130 SCT190
Temperature 14° C (57° F)
Dewpoint 3° C (37° F)
Relative Humidity 47%
Density Altitude --
Condensation Altitude 6,300 feet
Wind and Runways
Indicated Runway = 23
Headwind = 15 kt
Crosswind = 3 kt
History
 
 
 
More Info
All DigiWx sites map
NOAA Forecast
 
Airport IQ 5010
(LHV) Lock Haven
(PS81) Robert Packer Hospital
 
about DigiWx
 
FAA Disclaimer: The data displayed is for advisory purposes only and is not to be used for flight planning or operations. For official data, please call (570) 265-1024 to hear the current automated AWOS voice message.
  METAR N27 201529Z AUTO 24015G24KT 10 SM FEW130 SCT190 14/03 A2993